Dati Storici

Data ora Umidita' aria (%) Temperatura aria (°C) Rad globale (W/m²) Gonioanemometro (°) Tacoanemometro (m/s) Pioggia (mm)
10-10-2012 10:00 85.5 % 15.929 92.752 11.315 0.79 0
10-10-2012 09:50 85.8 % 15.869 96.639 54.828 2.221 0
10-10-2012 09:40 85.9 % 15.624 75.112 15.109 2.499 0
10-10-2012 09:30 86 % 15.555 50.524 37.991 2.019 0
10-10-2012 09:20 86.1 % 15.495 57.531 26.866 1.646 0
10-10-2012 09:10 86.5 % 15.493 68.4 18.754 1.254 0
10-10-2012 09:00 86.4 % 15.319 63.294 26.746 1.583 0
10-10-2012 08:50 86.4 % 15.284 50.028 40.364 1.076 0
10-10-2012 08:40 86.1 % 15.153 31.037 47.025 1.492 0
10-10-2012 08:30 85.8 % 15.149 26.589 16.726 2.028 0
10-10-2012 08:20 85.7 % 15.154 37.28 27.074 0.943 0
10-10-2012 08:10 85.8 % 15.02 28.591 40.186 1.11 0
10-10-2012 08:00 85.5 % 14.95 19.335 6.678 1.42 0
10-10-2012 07:50 85.2 % 14.955 12.989 354.522 0.962 0
10-10-2012 07:40 85.1 % 14.874 8.85 25.724 1.135 0
10-10-2012 07:30 84.9 % 14.771 7.571 18.877 1.709 0
10-10-2012 07:20 84.6 % 14.767 6.215 53.954 1.158 0
10-10-2012 07:10 84.1 % 14.712 5.331 25.669 1.84 0
10-10-2012 07:00 83.7 % 14.719 4.243 27.357 1.831 0
10-10-2012 06:50 83.2 % 14.68 4.204 41.582 1.916 0

I dati sono presentati in modo automatico a scopo informativo. In seguito a verifica i dati possono subire modifiche o essere invalidati e non riportati negli archivi definitivi.